createdAt,value
2022-11-12T00:00:19.807Z,101433.72
2022-11-12T00:03:26.705Z,101531.72
2022-11-12T00:06:34.414Z,101533.28
2022-11-12T00:09:41.052Z,101536.94
2022-11-12T00:12:47.629Z,101537.06
2022-11-12T00:15:54.182Z,101525.81
2022-11-12T00:19:00.726Z,101534.41
2022-11-12T00:22:08.472Z,101529.72
2022-11-12T00:25:15.278Z,101527.50
2022-11-12T00:28:22.002Z,101528.34
2022-11-12T00:31:28.537Z,101523.34
2022-11-12T00:34:36.084Z,101535.47
2022-11-12T00:37:44.268Z,101534.09
2022-11-12T00:40:50.814Z,101534.00
2022-11-12T00:43:57.663Z,101522.63
2022-11-12T00:47:04.077Z,101518.06
2022-11-12T00:50:11.178Z,101526.94
2022-11-12T00:53:19.267Z,101522.09
2022-11-12T00:56:25.758Z,101533.22
2022-11-12T00:59:32.121Z,101534.25
2022-11-12T01:02:44.254Z,101538.16
2022-11-12T01:05:52.772Z,101535.69
2022-11-12T01:09:00.606Z,101540.22
2022-11-12T01:12:07.051Z,101542.16
2022-11-12T01:15:13.709Z,101538.47
2022-11-12T01:18:20.075Z,101542.31
2022-11-12T01:21:30.096Z,101514.25
2022-11-12T01:24:37.818Z,101535.75
2022-11-12T01:27:44.283Z,101540.22
2022-11-12T01:30:50.833Z,101535.47
2022-11-12T01:34:00.400Z,101530.50
2022-11-12T01:37:06.848Z,101531.25
2022-11-12T01:40:15.156Z,101529.13
2022-11-12T01:43:21.578Z,101521.41
2022-11-12T01:46:30.508Z,101524.50
2022-11-12T01:49:45.159Z,101518.88
2022-11-12T01:53:00.568Z,101525.97
2022-11-12T01:56:08.755Z,101523.53
2022-11-12T01:59:20.860Z,101530.59
2022-11-12T02:02:28.060Z,101529.00
2022-11-12T02:05:36.834Z,101519.41
2022-11-12T02:08:43.944Z,101527.06
2022-11-12T02:11:51.609Z,101528.38
2022-11-12T02:14:56.945Z,101521.19
2022-11-12T02:18:03.998Z,101520.38
2022-11-12T02:21:10.678Z,101522.81
2022-11-12T02:24:36.867Z,101521.03
2022-11-12T02:27:44.227Z,101514.56
2022-11-12T02:30:50.581Z,101514.47
2022-11-12T02:33:57.388Z,101515.09
2022-11-12T02:37:03.904Z,101518.53
2022-11-12T02:40:12.300Z,101512.81
2022-11-12T02:43:18.812Z,101515.38
2022-11-12T02:46:25.527Z,101507.06
2022-11-12T02:49:31.833Z,101508.22
2022-11-12T02:52:39.769Z,101514.53
2022-11-12T02:55:47.807Z,101509.91
2022-11-12T02:58:54.134Z,101510.06
2022-11-12T03:02:00.746Z,101495.41
2022-11-12T03:05:08.676Z,101483.91
2022-11-12T03:08:15.249Z,101488.28
2022-11-12T03:11:23.094Z,101491.06
2022-11-12T03:14:29.474Z,101493.09
2022-11-12T03:17:36.044Z,101491.22
2022-11-12T03:20:42.739Z,101484.50
2022-11-12T03:23:49.182Z,101494.44
2022-11-12T03:26:57.309Z,101493.53
2022-11-12T03:30:03.852Z,101490.38
2022-11-12T03:33:12.402Z,101496.66
2022-11-12T03:36:18.964Z,101490.41
2022-11-12T03:39:25.425Z,101487.47
2022-11-12T03:42:33.168Z,101488.66
2022-11-12T03:45:39.594Z,101481.16
2022-11-12T03:48:46.338Z,101490.66
2022-11-12T03:51:53.051Z,101486.00
2022-11-12T03:54:59.716Z,101486.13
2022-11-12T03:58:07.395Z,101492.59
2022-11-12T04:01:13.933Z,101495.41
2022-11-12T04:04:20.406Z,101480.69
2022-11-12T04:07:44.143Z,101495.16
2022-11-12T04:10:50.876Z,101487.97
2022-11-12T04:13:58.868Z,101479.59
2022-11-12T04:17:22.699Z,101481.53
2022-11-12T04:20:46.922Z,101475.97
2022-11-12T04:23:53.538Z,101467.72
2022-11-12T04:26:58.922Z,101474.25
2022-11-12T04:30:19.854Z,101472.84
2022-11-12T04:33:26.240Z,101457.50
2022-11-12T04:36:33.018Z,101461.13
2022-11-12T04:39:39.390Z,101467.91
2022-11-12T04:43:06.501Z,101465.09
2022-11-12T04:46:14.506Z,101473.78
2022-11-12T04:49:21.147Z,101476.31
2022-11-12T04:52:28.215Z,101492.47
2022-11-12T04:55:34.585Z,101484.56
2022-11-12T04:58:41.081Z,101483.78
2022-11-12T05:01:48.915Z,101473.56
2022-11-12T05:04:55.274Z,101479.31
2022-11-12T05:08:02.241Z,101484.09
2022-11-12T05:11:12.793Z,101486.19
2022-11-12T05:14:19.883Z,101480.31
2022-11-12T05:17:28.033Z,101489.25
2022-11-12T05:20:35.905Z,101483.28
2022-11-12T05:23:42.603Z,101491.75
2022-11-12T05:26:49.229Z,101494.47
2022-11-12T05:29:55.802Z,101490.75
2022-11-12T05:33:03.525Z,101490.44
2022-11-12T05:36:10.036Z,101496.00
2022-11-12T05:39:16.793Z,101501.94
2022-11-12T05:42:23.207Z,101506.31
2022-11-12T05:45:29.949Z,101507.31
2022-11-12T05:48:37.693Z,101511.06
2022-11-12T05:51:44.642Z,101516.69
2022-11-12T05:54:51.437Z,101514.81
2022-11-12T05:57:57.824Z,101519.63
2022-11-12T06:01:05.380Z,101526.63
2022-11-12T06:04:14.928Z,101513.38
2022-11-12T06:07:21.645Z,101509.03
2022-11-12T06:10:28.542Z,101507.94
2022-11-12T06:13:35.337Z,101517.09
2022-11-12T06:16:41.852Z,101518.84
2022-11-12T06:19:50.017Z,101524.88
2022-11-12T06:22:57.716Z,101525.69
2022-11-12T06:26:05.110Z,101531.66
2022-11-12T06:29:12.010Z,101523.69
2022-11-12T06:32:18.457Z,101526.09
2022-11-12T06:35:26.619Z,101533.78
2022-11-12T06:38:34.213Z,101529.34
2022-11-12T06:41:40.737Z,101526.81
2022-11-12T06:44:47.568Z,101521.44
2022-11-12T06:47:53.917Z,101521.44
2022-11-12T06:51:07.710Z,101520.47
2022-11-12T06:54:14.376Z,101537.91
2022-11-12T06:57:20.715Z,101533.16
2022-11-12T07:00:27.639Z,101531.44
2022-11-12T07:03:34.433Z,101430.31
2022-11-12T07:06:22.337Z,101519.84
2022-11-12T07:09:08.718Z,101526.09
2022-11-12T07:11:54.955Z,101520.44
2022-11-12T07:14:41.217Z,101520.44
2022-11-12T07:17:27.649Z,101524.88
2022-11-12T07:20:14.589Z,101531.47
2022-11-12T07:23:02.670Z,101521.34
2022-11-12T07:25:48.840Z,101522.47
2022-11-12T07:28:35.533Z,101525.81
2022-11-12T07:31:22.099Z,101524.72
2022-11-12T07:34:08.474Z,101523.09
2022-11-12T07:36:54.760Z,101516.59
2022-11-12T07:39:42.323Z,101509.13
2022-11-12T07:42:28.682Z,101517.22
2022-11-12T07:45:15.125Z,101519.34
2022-11-12T07:48:01.343Z,101519.13
2022-11-12T07:50:47.534Z,101517.00
2022-11-12T07:53:33.943Z,101521.31
2022-11-12T07:56:23.367Z,101515.56
2022-11-12T07:59:09.555Z,101517.38
2022-11-12T08:01:56.224Z,101518.97
2022-11-12T08:04:42.678Z,101517.44
2022-11-12T08:07:28.939Z,101523.91
2022-11-12T08:10:15.674Z,101518.75
2022-11-12T08:13:03.431Z,101529.75
2022-11-12T08:15:52.385Z,101525.31
2022-11-12T08:18:38.544Z,101523.78
2022-11-12T08:21:24.706Z,101528.84
2022-11-12T08:24:11.157Z,101521.56
2022-11-12T08:26:57.411Z,101525.59
2022-11-12T08:29:45.218Z,101524.22
2022-11-12T08:32:32.161Z,101531.66
2022-11-12T08:35:18.313Z,101531.59
2022-11-12T08:38:06.559Z,101536.94
2022-11-12T08:40:53.030Z,101533.22
2022-11-12T08:43:40.405Z,101537.63
2022-11-12T08:46:28.171Z,101527.19
2022-11-12T08:49:14.616Z,101532.84
2022-11-12T08:52:00.899Z,101440.88
2022-11-12T08:54:47.155Z,101539.00
2022-11-12T08:57:33.719Z,101535.41
2022-11-12T09:00:20.212Z,101531.53
2022-11-12T09:03:13.333Z,101535.56
2022-11-12T09:06:04.165Z,101540.25
2022-11-12T09:08:50.296Z,101534.59
2022-11-12T09:11:36.775Z,101534.66
2022-11-12T09:14:23.157Z,101538.25
2022-11-12T09:17:09.526Z,101540.25
2022-11-12T09:19:57.446Z,101533.69
2022-11-12T09:22:43.733Z,101532.09
2022-11-12T09:25:30.025Z,101528.75
2022-11-12T09:28:18.210Z,101538.91
2022-11-12T09:31:08.355Z,101528.94
2022-11-12T09:33:54.667Z,101524.56
2022-11-12T09:36:42.207Z,101532.09
2022-11-12T09:39:28.627Z,101531.84
2022-11-12T09:42:17.547Z,101509.94
2022-11-12T09:45:11.524Z,101525.13
2022-11-12T09:48:01.033Z,101526.28
2022-11-12T09:50:55.522Z,101531.66
2022-11-12T09:53:49.843Z,101526.75
2022-11-12T09:56:35.895Z,101526.13
2022-11-12T09:59:23.436Z,101526.50
2022-11-12T10:02:26.947Z,101521.44
2022-11-12T10:05:23.220Z,101521.50
2022-11-12T10:08:29.986Z,101526.00
2022-11-12T10:12:03.796Z,101519.56
2022-11-12T10:15:24.676Z,101514.91
2022-11-12T10:18:16.769Z,101513.31
2022-11-12T10:21:13.291Z,101521.31
2022-11-12T10:24:01.771Z,101508.59
2022-11-12T10:26:49.675Z,101512.16
2022-11-12T10:29:43.175Z,101508.81
2022-11-12T10:32:29.326Z,101488.34
2022-11-12T10:35:18.719Z,101491.22
2022-11-12T10:38:08.417Z,101489.31
2022-11-12T10:40:54.788Z,101493.66
2022-11-12T10:43:54.710Z,101487.06
2022-11-12T10:46:41.324Z,101491.56
2022-11-12T10:49:27.561Z,101496.25
2022-11-12T10:52:24.734Z,101499.63
2022-11-12T10:55:17.858Z,101499.78
2022-11-12T10:58:06.546Z,101493.69
2022-11-12T11:00:57.372Z,101498.31
2022-11-12T11:03:48.391Z,101493.03
2022-11-12T11:06:34.574Z,101487.69
2022-11-12T11:09:27.378Z,101485.44
2022-11-12T11:12:24.596Z,101484.16
2022-11-12T11:15:21.153Z,101484.00
2022-11-12T11:18:12.552Z,101492.22
2022-11-12T11:21:17.779Z,101486.25
2022-11-12T11:24:16.126Z,101488.03
2022-11-12T11:27:05.920Z,101479.31
2022-11-12T11:30:04.509Z,101474.16
2022-11-12T11:33:22.779Z,101476.88
2022-11-12T11:36:21.962Z,101480.91
2022-11-12T11:39:18.794Z,101483.81
2022-11-12T11:42:18.529Z,101480.91
2022-11-12T11:45:16.208Z,101478.34
2022-11-12T11:48:13.873Z,101472.88
2022-11-12T11:51:08.245Z,101444.69
2022-11-12T11:54:07.259Z,101472.06
2022-11-12T11:56:59.024Z,101470.78
2022-11-12T12:00:02.075Z,101463.19
2022-11-12T12:03:06.855Z,101455.78
2022-11-12T12:06:16.819Z,101468.03
2022-11-12T12:09:25.077Z,101464.31
2022-11-12T12:12:23.811Z,101469.47
2022-11-12T12:15:34.405Z,101469.00
2022-11-12T12:18:33.703Z,101460.59
2022-11-12T12:21:22.905Z,101451.44
2022-11-12T12:24:15.252Z,101438.56
2022-11-12T12:27:05.475Z,101445.78
2022-11-12T12:29:54.643Z,101437.72
2022-11-12T12:32:46.261Z,101438.03
2022-11-12T12:35:35.595Z,101437.25
2022-11-12T12:38:28.484Z,101432.56
2022-11-12T12:41:20.515Z,101436.78
2022-11-12T12:44:10.311Z,101434.00
2022-11-12T12:47:01.475Z,101421.59
2022-11-12T12:49:50.367Z,101427.06
2022-11-12T12:53:02.263Z,101407.56
2022-11-12T12:55:52.067Z,101406.94
2022-11-12T12:58:44.979Z,101409.19
2022-11-12T13:01:33.859Z,101393.75
2022-11-12T13:04:53.443Z,101392.28
2022-11-12T13:07:43.071Z,101406.31
2022-11-12T13:10:52.061Z,101398.38
2022-11-12T13:13:39.084Z,101396.13
2022-11-12T13:16:58.772Z,101410.97
2022-11-12T13:19:47.622Z,101394.66
2022-11-12T13:22:51.487Z,101394.66
2022-11-12T13:25:38.813Z,101339.13
2022-11-12T13:28:26.578Z,101396.44
2022-11-12T13:31:27.691Z,101385.84
2022-11-12T13:34:19.522Z,101385.69
2022-11-12T13:37:07.057Z,101389.38
2022-11-12T13:39:53.491Z,101389.25
2022-11-12T13:42:49.042Z,101384.41
2022-11-12T13:45:42.190Z,101387.63
2022-11-12T13:48:32.210Z,101385.69
2022-11-12T13:51:22.827Z,101386.19
2022-11-12T13:54:32.471Z,101383.44
2022-11-12T13:57:30.457Z,101376.81
2022-11-12T14:00:26.031Z,101367.97
2022-11-12T14:03:19.358Z,101362.63
2022-11-12T14:06:15.551Z,101368.09
2022-11-12T14:09:21.160Z,101362.47
2022-11-12T14:12:21.967Z,101352.50
2022-11-12T14:15:26.119Z,101361.19
2022-11-12T14:18:21.710Z,101364.72
2022-11-12T14:21:14.295Z,101328.69
2022-11-12T14:24:03.644Z,101345.75
2022-11-12T14:26:49.977Z,101351.03
2022-11-12T14:29:41.100Z,101362.66
2022-11-12T14:32:36.805Z,101348.97
2022-11-12T14:35:35.637Z,101353.97
2022-11-12T14:38:24.222Z,101341.56
2022-11-12T14:41:16.892Z,101338.81
2022-11-12T14:44:13.911Z,101339.47
2022-11-12T14:47:02.189Z,101342.03
2022-11-12T14:49:50.803Z,101334.00
2022-11-12T14:52:43.495Z,101332.56
2022-11-12T14:55:33.232Z,101335.78
2022-11-12T14:58:21.208Z,101331.91
2022-11-12T15:04:35.794Z,101322.72
2022-11-12T15:07:26.498Z,101332.22
2022-11-12T15:10:36.206Z,101328.03
2022-11-12T15:13:25.047Z,101334.66
2022-11-12T15:16:17.389Z,101335.13
2022-11-12T15:19:21.942Z,101335.78
2022-11-12T15:22:20.645Z,101333.38
2022-11-12T15:25:21.588Z,101286.69
2022-11-12T15:28:22.459Z,101327.88
2022-11-12T15:31:17.253Z,101320.31
2022-11-12T15:34:43.182Z,101322.75
2022-11-12T15:37:36.981Z,101320.31
2022-11-12T15:40:23.416Z,101323.53
2022-11-12T15:43:16.880Z,101325.78
2022-11-12T15:46:03.797Z,101318.88
2022-11-12T15:48:55.595Z,101316.28
2022-11-12T15:51:42.169Z,101315.63
2022-11-12T15:54:28.517Z,101311.13
2022-11-12T15:57:18.117Z,101296.97
2022-11-12T16:00:11.297Z,101295.84
2022-11-12T16:03:00.331Z,101286.97
2022-11-12T16:05:47.188Z,101206.22
2022-11-12T16:08:33.652Z,101290.38
2022-11-12T16:11:38.450Z,101289.41
2022-11-12T16:14:25.242Z,101282.16
2022-11-12T16:17:15.308Z,101276.38
2022-11-12T16:20:01.843Z,101277.34
2022-11-12T16:22:48.345Z,101281.66
2022-11-12T16:25:36.819Z,101272.47
2022-11-12T16:28:23.073Z,101266.84
2022-11-12T16:31:09.076Z,101271.03
2022-11-12T16:33:56.537Z,101267.00
2022-11-12T16:36:43.024Z,101263.28
2022-11-12T16:39:31.035Z,101264.78
2022-11-12T16:42:17.084Z,101269.25
2022-11-12T16:45:03.683Z,101262.03
2022-11-12T16:47:52.186Z,101263.47
2022-11-12T16:50:39.525Z,101264.44
2022-11-12T16:53:26.232Z,101264.44
2022-11-12T16:56:14.666Z,101260.28
2022-11-12T16:59:00.960Z,101256.06
2022-11-12T17:01:47.322Z,101259.94
2022-11-12T17:04:33.710Z,101256.22
2022-11-12T17:07:21.198Z,101253.00
2022-11-12T17:10:08.495Z,101260.25
2022-11-12T17:12:54.634Z,101254.75
2022-11-12T17:15:41.183Z,101250.53
2022-11-12T17:18:27.231Z,101242.34
2022-11-12T17:21:16.063Z,101248.63
2022-11-12T17:24:03.706Z,101249.25
2022-11-12T17:26:50.004Z,101244.25
2022-11-12T17:29:36.366Z,101240.06
2022-11-12T17:32:23.696Z,101240.22
2022-11-12T17:35:10.134Z,101237.66
2022-11-12T17:37:56.540Z,101236.34
2022-11-12T17:40:44.470Z,101239.09
2022-11-12T17:43:30.907Z,101237.78
2022-11-12T17:46:17.134Z,101228.94
2022-11-12T17:49:03.845Z,101225.38
2022-11-12T17:51:50.084Z,101217.69
2022-11-12T17:54:36.575Z,101116.25
2022-11-12T17:57:24.127Z,101223.81
2022-11-12T18:00:11.967Z,101214.84
2022-11-12T18:02:58.560Z,101213.84
2022-11-12T18:05:45.215Z,101208.69
2022-11-12T18:08:31.701Z,101213.38
2022-11-12T18:11:17.874Z,101211.13
2022-11-12T18:14:08.762Z,101208.50
2022-11-12T18:16:56.827Z,101210.44
2022-11-12T18:19:42.948Z,101215.41
2022-11-12T18:22:29.049Z,101208.50
2022-11-12T18:25:15.565Z,101215.44
2022-11-12T18:28:01.762Z,101220.28
2022-11-12T18:30:49.399Z,101221.09
2022-11-12T18:33:37.506Z,101218.50
2022-11-12T18:36:25.999Z,101221.84
2022-11-12T18:39:12.183Z,101217.53
2022-11-12T18:41:58.577Z,101211.88
2022-11-12T18:44:45.080Z,101212.31
2022-11-12T18:47:32.857Z,101211.25
2022-11-12T18:50:19.418Z,101208.81
2022-11-12T18:53:05.828Z,101203.03
2022-11-12T18:55:51.791Z,101206.38
2022-11-12T18:58:38.160Z,101203.81
2022-11-12T19:01:25.809Z,101206.44
2022-11-12T19:04:13.669Z,101207.56
2022-11-12T19:06:59.897Z,101204.16
2022-11-12T19:09:46.416Z,101194.16
2022-11-12T19:12:33.342Z,101210.59
2022-11-12T19:15:24.065Z,101198.16
2022-11-12T19:18:13.142Z,101203.16
2022-11-12T19:21:06.357Z,101195.81
2022-11-12T19:23:54.933Z,101194.19
2022-11-12T19:26:41.343Z,101193.53
2022-11-12T19:29:27.490Z,101184.38
2022-11-12T19:32:13.635Z,101181.03
2022-11-12T19:35:00.219Z,101180.38
2022-11-12T19:37:47.618Z,101188.41
2022-11-12T19:40:34.043Z,101182.59
2022-11-12T19:43:23.658Z,101177.91
2022-11-12T19:46:10.413Z,101171.50
2022-11-12T19:48:56.646Z,101173.28
2022-11-12T19:51:43.235Z,101176.50
2022-11-12T19:54:30.694Z,101168.00
2022-11-12T19:57:17.042Z,101164.16
2022-11-12T20:00:04.798Z,101163.50
2022-11-12T20:02:50.911Z,101161.41
2022-11-12T20:05:37.487Z,101159.31
2022-11-12T20:08:25.207Z,101167.50
2022-11-12T20:11:13.227Z,101115.47
2022-11-12T20:13:59.620Z,101149.50
2022-11-12T20:16:45.932Z,101158.38
2022-11-12T20:19:32.124Z,101157.09
2022-11-12T20:22:18.508Z,101158.06
2022-11-12T20:25:05.378Z,101154.97
2022-11-12T20:27:53.101Z,101145.00
2022-11-12T20:30:39.897Z,101136.81
2022-11-12T20:33:26.310Z,101144.38
2022-11-12T20:36:14.821Z,101144.19
2022-11-12T20:39:02.088Z,101149.50
2022-11-12T20:41:48.619Z,101139.25
2022-11-12T20:44:36.320Z,101145.81
2022-11-12T20:47:23.385Z,101145.97
2022-11-12T20:50:09.897Z,101145.19
2022-11-12T20:52:56.310Z,101154.50
2022-11-12T20:55:42.939Z,101146.63
2022-11-12T20:58:30.528Z,101097.91
2022-11-12T21:01:19.701Z,101133.91
2022-11-12T21:04:26.473Z,101137.44
2022-11-12T21:07:33.403Z,101137.09
2022-11-12T21:10:40.138Z,101131.31
2022-11-12T21:13:46.790Z,101125.69
2022-11-12T21:16:54.521Z,101132.13
2022-11-12T21:20:01.241Z,101125.00
2022-11-12T21:23:07.985Z,101116.94
2022-11-12T21:26:16.246Z,101107.94
2022-11-12T21:29:22.911Z,101110.81
2022-11-12T21:32:30.920Z,101114.94
2022-11-12T21:35:37.375Z,101116.09
2022-11-12T21:38:43.862Z,101109.84
2022-11-12T21:41:50.345Z,101121.94
2022-11-12T21:44:56.614Z,101114.22
2022-11-12T21:48:05.117Z,101107.78
2022-11-12T21:51:14.024Z,101105.69
2022-11-12T21:54:20.599Z,101109.78
2022-11-12T21:57:27.097Z,101110.63
2022-11-12T22:00:42.266Z,101111.28
2022-11-12T22:03:51.855Z,101106.31
2022-11-12T22:06:58.609Z,101109.19
2022-11-12T22:10:05.557Z,101106.94
2022-11-12T22:13:26.566Z,101108.91
2022-11-12T22:16:34.035Z,101097.16
2022-11-12T22:19:41.830Z,101098.13
2022-11-12T22:22:48.275Z,101097.63
2022-11-12T22:25:57.829Z,101094.44
2022-11-12T22:29:05.192Z,101091.69
2022-11-12T22:32:11.925Z,101082.88
2022-11-12T22:35:19.973Z,101071.59
2022-11-12T22:38:26.525Z,101074.00
2022-11-12T22:41:33.918Z,101062.78
2022-11-12T22:44:40.632Z,101061.00
2022-11-12T22:47:47.127Z,101052.31
2022-11-12T22:50:59.438Z,101048.94
2022-11-12T22:54:07.827Z,101054.72
2022-11-12T22:57:14.295Z,101040.09
2022-11-12T23:00:29.984Z,101046.22
2022-11-12T23:03:38.136Z,101045.56
2022-11-12T23:06:46.176Z,101042.69
2022-11-12T23:09:52.408Z,101042.03
2022-11-12T23:12:58.969Z,101033.81
2022-11-12T23:16:08.178Z,101039.59
2022-11-12T23:19:14.678Z,101029.97
2022-11-12T23:22:22.479Z,101020.00
2022-11-12T23:25:29.776Z,101018.88
2022-11-12T23:28:37.276Z,101021.63
2022-11-12T23:31:44.224Z,101019.38
2022-11-12T23:34:50.859Z,101022.09
2022-11-12T23:37:58.769Z,101014.06
2022-11-12T23:41:06.283Z,101011.00
2022-11-12T23:44:12.928Z,101007.97
2022-11-12T23:47:19.286Z,101006.84
2022-11-12T23:50:25.959Z,101000.38
2022-11-12T23:53:34.583Z,100997.47
2022-11-12T23:56:40.825Z,100998.28
2022-11-12T23:59:47.456Z,100994.59
